createdAt,value
2024-04-09T00:00:21.877Z,12.55
2024-04-09T00:03:10.018Z,12.55
2024-04-09T00:05:41.252Z,12.53
2024-04-09T00:08:12.046Z,12.50
2024-04-09T00:10:41.881Z,12.46
2024-04-09T00:13:11.016Z,12.43
2024-04-09T00:15:41.375Z,12.41
2024-04-09T00:18:12.967Z,12.40
2024-04-09T00:20:45.977Z,12.39
2024-04-09T00:23:17.563Z,12.38
2024-04-09T00:25:46.442Z,12.39
2024-04-09T00:28:14.538Z,12.40
2024-04-09T00:30:42.580Z,12.42
2024-04-09T00:33:10.665Z,12.47
2024-04-09T00:35:38.756Z,12.48
2024-04-09T00:38:08.073Z,12.48
2024-04-09T00:40:37.629Z,12.45
2024-04-09T00:43:05.571Z,12.49
2024-04-09T00:45:34.457Z,12.53
2024-04-09T00:48:03.049Z,12.54
2024-04-09T00:50:34.141Z,12.55
2024-04-09T00:53:02.812Z,12.61
2024-04-09T00:55:33.831Z,12.65
2024-04-09T00:58:04.500Z,12.68
2024-04-09T01:00:32.728Z,12.70
2024-04-09T01:03:01.917Z,12.71
2024-04-09T01:05:31.491Z,12.71
2024-04-09T01:07:59.504Z,12.69
2024-04-09T01:10:27.493Z,12.68
2024-04-09T01:12:55.598Z,12.66
2024-04-09T01:15:23.720Z,12.67
2024-04-09T01:17:52.333Z,12.66
2024-04-09T01:20:20.411Z,12.64
2024-04-09T01:22:48.375Z,12.60
2024-04-09T01:25:16.454Z,12.57
2024-04-09T01:27:44.386Z,12.54
2024-04-09T01:30:14.308Z,12.50
2024-04-09T01:32:42.854Z,12.45
2024-04-09T01:35:11.189Z,12.40
2024-04-09T01:37:39.305Z,12.34
2024-04-09T01:40:08.875Z,12.29
2024-04-09T01:42:36.980Z,12.24
2024-04-09T01:45:06.255Z,12.19
2024-04-09T01:47:35.086Z,12.14
2024-04-09T01:50:05.188Z,12.09
2024-04-09T01:52:33.334Z,12.03
2024-04-09T01:55:01.683Z,11.97
2024-04-09T01:57:35.369Z,11.93
2024-04-09T02:00:12.881Z,11.90
2024-04-09T02:02:43.647Z,11.86
2024-04-09T02:05:14.078Z,11.84
2024-04-09T02:07:42.477Z,11.82
2024-04-09T02:10:10.890Z,11.80
2024-04-09T02:12:42.510Z,11.78
2024-04-09T02:15:14.384Z,11.76
2024-04-09T02:17:42.605Z,11.73
2024-04-09T02:20:11.729Z,11.70
2024-04-09T02:22:39.846Z,11.67
2024-04-09T02:25:08.736Z,11.64
2024-04-09T02:27:36.974Z,11.62
2024-04-09T02:30:10.774Z,11.60
2024-04-09T02:32:39.014Z,11.58
2024-04-09T02:35:11.442Z,11.56
2024-04-09T02:37:40.528Z,11.52
2024-04-09T02:40:16.946Z,11.47
2024-04-09T02:42:46.526Z,11.42
2024-04-09T02:45:15.374Z,11.38
2024-04-09T02:47:43.584Z,11.34
2024-04-09T02:50:11.697Z,11.29
2024-04-09T02:52:39.823Z,11.26
2024-04-09T02:55:08.407Z,11.22
2024-04-09T02:57:36.532Z,11.18
2024-04-09T03:00:09.961Z,11.16
2024-04-09T03:02:38.257Z,11.13
2024-04-09T03:05:07.422Z,11.10
2024-04-09T03:07:35.932Z,11.09
2024-04-09T03:10:04.198Z,11.06
2024-04-09T03:12:35.863Z,11.04
2024-04-09T03:15:04.430Z,11.02
2024-04-09T03:17:32.588Z,10.99
2024-04-09T03:20:00.515Z,10.96
2024-04-09T03:22:28.530Z,10.94
2024-04-09T03:24:56.494Z,10.90
2024-04-09T03:27:24.631Z,10.87
2024-04-09T03:29:52.815Z,10.83
2024-04-09T03:32:22.013Z,10.79
2024-04-09T03:34:50.477Z,10.75
2024-04-09T03:37:18.562Z,10.71
2024-04-09T03:39:46.555Z,10.66
2024-04-09T03:42:14.618Z,10.63
2024-04-09T03:44:42.707Z,10.60
2024-04-09T03:47:10.835Z,10.58
2024-04-09T03:49:38.889Z,10.56
2024-04-09T03:52:07.272Z,10.55
2024-04-09T03:54:35.521Z,10.52
2024-04-09T03:57:06.752Z,10.49
2024-04-09T03:59:37.464Z,10.45
2024-04-09T04:02:05.556Z,10.42
2024-04-09T04:04:33.642Z,10.40
2024-04-09T04:07:01.800Z,10.39
2024-04-09T04:09:29.925Z,10.40
2024-04-09T04:11:57.990Z,10.43
2024-04-09T04:14:26.183Z,10.49
2024-04-09T04:16:54.650Z,10.52
2024-04-09T04:19:22.688Z,10.56
2024-04-09T04:21:50.706Z,10.58
2024-04-09T04:24:18.786Z,10.58
2024-04-09T04:26:46.750Z,10.59
2024-04-09T04:29:14.790Z,10.62
2024-04-09T04:31:43.212Z,10.67
2024-04-09T04:34:12.385Z,10.74
2024-04-09T04:36:40.559Z,10.82
2024-04-09T04:39:08.977Z,10.90
2024-04-09T04:41:36.982Z,10.98
2024-04-09T04:44:06.169Z,11.09
2024-04-09T04:46:34.144Z,11.18
2024-04-09T04:49:02.289Z,11.28
2024-04-09T04:51:30.609Z,11.39
2024-04-09T04:53:58.711Z,11.51
2024-04-09T04:56:26.720Z,11.63
2024-04-09T04:58:54.671Z,11.78
2024-04-09T05:01:23.327Z,11.95
2024-04-09T05:03:53.232Z,12.12
2024-04-09T05:06:21.441Z,12.25
2024-04-09T05:08:49.426Z,12.35
2024-04-09T05:11:18.279Z,12.44
2024-04-09T05:13:46.272Z,12.53
2024-04-09T05:16:14.256Z,12.62
2024-04-09T05:18:42.468Z,12.70
2024-04-09T05:21:10.666Z,12.79
2024-04-09T05:23:38.683Z,12.88
2024-04-09T05:26:08.604Z,12.97
2024-04-09T05:28:36.816Z,13.07
2024-04-09T05:31:04.924Z,13.16
2024-04-09T05:33:33.144Z,13.25
2024-04-09T05:36:01.512Z,13.34
2024-04-09T05:38:29.693Z,13.41
2024-04-09T05:41:01.360Z,13.50
2024-04-09T05:43:29.439Z,13.59
2024-04-09T05:45:57.671Z,13.71
2024-04-09T05:48:25.796Z,13.81
2024-04-09T05:50:54.150Z,13.94
2024-04-09T05:53:22.708Z,14.08
2024-04-09T05:55:57.792Z,14.18
2024-04-09T05:58:26.039Z,14.30
2024-04-09T06:00:54.848Z,14.39
2024-04-09T06:03:24.193Z,14.48
2024-04-09T06:05:52.668Z,14.60
2024-04-09T06:08:20.907Z,14.71
2024-04-09T06:10:49.946Z,14.82
2024-04-09T06:13:18.038Z,14.93
2024-04-09T06:15:46.492Z,15.06
2024-04-09T06:18:14.845Z,15.19
2024-04-09T06:20:42.968Z,15.30
2024-04-09T06:23:11.974Z,15.40
2024-04-09T06:25:40.605Z,15.50
2024-04-09T06:28:09.089Z,15.63
2024-04-09T06:30:37.709Z,15.73
2024-04-09T06:33:06.991Z,15.80
2024-04-09T06:35:35.280Z,15.88
2024-04-09T06:38:03.438Z,15.98
2024-04-09T06:40:33.096Z,16.05
2024-04-09T06:43:01.190Z,16.13
2024-04-09T06:45:29.867Z,16.25
2024-04-09T06:47:58.201Z,16.38
2024-04-09T06:50:26.364Z,16.48
2024-04-09T06:52:54.389Z,16.64
2024-04-09T06:55:22.720Z,16.84
2024-04-09T06:57:50.819Z,16.98
2024-04-09T07:00:19.110Z,17.10
2024-04-09T07:02:47.221Z,17.24
2024-04-09T07:05:15.256Z,17.40
2024-04-09T07:07:43.230Z,17.54
2024-04-09T07:10:12.345Z,17.64
2024-04-09T07:12:40.587Z,17.73
2024-04-09T07:15:08.609Z,17.83
2024-04-09T07:17:36.811Z,17.99
2024-04-09T07:20:05.427Z,18.13
2024-04-09T07:22:33.417Z,18.28
2024-04-09T07:25:01.361Z,18.43
2024-04-09T07:27:29.405Z,18.60
2024-04-09T07:29:57.491Z,18.76
2024-04-09T07:32:25.593Z,18.91
2024-04-09T07:34:53.669Z,19.07
2024-04-09T07:37:22.290Z,19.31
2024-04-09T07:39:51.091Z,19.62
2024-04-09T07:42:19.140Z,19.90
2024-04-09T07:44:47.098Z,20.19
2024-04-09T07:47:15.766Z,20.44
2024-04-09T07:49:44.063Z,20.68
2024-04-09T07:52:12.096Z,20.96
2024-04-09T07:54:40.238Z,21.21
2024-04-09T07:57:11.403Z,21.36
2024-04-09T07:59:39.371Z,21.53
2024-04-09T08:02:07.367Z,21.77
2024-04-09T08:04:35.703Z,21.90
2024-04-09T08:07:04.507Z,22.15
2024-04-09T08:09:33.323Z,22.41
2024-04-09T08:12:01.902Z,22.63
2024-04-09T08:14:30.070Z,22.86
2024-04-09T08:16:58.085Z,22.98
2024-04-09T08:19:29.355Z,23.19
2024-04-09T08:21:57.590Z,23.47
2024-04-09T08:24:25.732Z,23.73
2024-04-09T08:26:54.378Z,23.83
2024-04-09T08:29:23.339Z,24.16
2024-04-09T08:31:51.738Z,24.47
2024-04-09T08:34:21.416Z,24.64
2024-04-09T08:36:50.898Z,24.82
2024-04-09T08:39:19.338Z,24.98
2024-04-09T08:41:47.507Z,25.15
2024-04-09T08:44:16.017Z,25.28
2024-04-09T08:46:44.245Z,25.20
2024-04-09T08:49:13.299Z,25.41
2024-04-09T08:51:42.789Z,25.62
2024-04-09T08:54:11.098Z,25.91
2024-04-09T08:56:39.208Z,26.30
2024-04-09T08:59:09.036Z,26.52
2024-04-09T09:01:37.133Z,26.55
2024-04-09T09:04:05.890Z,26.64
2024-04-09T09:06:47.045Z,26.86
2024-04-09T09:09:30.340Z,26.99
2024-04-09T09:12:03.429Z,27.23
2024-04-09T09:14:31.752Z,27.13
2024-04-09T09:17:08.023Z,27.31
2024-04-09T09:19:37.564Z,27.45
2024-04-09T09:22:06.505Z,27.50
2024-04-09T09:24:35.364Z,27.58
2024-04-09T09:27:09.531Z,27.62
2024-04-09T09:29:38.321Z,27.66
2024-04-09T09:32:07.467Z,27.58
2024-04-09T09:34:41.979Z,27.58
2024-04-09T09:37:11.527Z,27.60
2024-04-09T09:39:41.306Z,27.71
2024-04-09T09:42:13.522Z,27.43
2024-04-09T09:44:42.817Z,27.17
2024-04-09T09:47:11.669Z,27.34
2024-04-09T09:49:39.943Z,27.47
2024-04-09T09:52:08.003Z,27.73
2024-04-09T09:54:35.965Z,27.65
2024-04-09T09:57:11.952Z,27.60
2024-04-09T09:59:49.604Z,27.65
2024-04-09T10:02:20.220Z,27.93
2024-04-09T10:04:49.611Z,27.82
2024-04-09T10:07:19.446Z,27.97
2024-04-09T10:09:54.083Z,27.97
2024-04-09T10:12:36.510Z,27.94
2024-04-09T10:15:18.539Z,27.98
2024-04-09T10:17:52.711Z,28.14
2024-04-09T10:20:23.812Z,28.11
2024-04-09T10:22:53.220Z,28.18
2024-04-09T10:25:22.930Z,28.09
2024-04-09T10:28:06.188Z,27.88
2024-04-09T10:30:35.812Z,27.92
2024-04-09T10:33:05.948Z,28.02
2024-04-09T10:35:35.003Z,28.23
2024-04-09T10:38:06.184Z,28.47
2024-04-09T10:40:36.352Z,28.31
2024-04-09T10:43:09.356Z,28.42
2024-04-09T10:45:47.229Z,28.26
2024-04-09T10:48:25.343Z,28.60
2024-04-09T10:50:54.020Z,28.46
2024-04-09T10:53:22.846Z,28.21
2024-04-09T10:55:50.884Z,28.17
2024-04-09T10:58:18.919Z,27.85
2024-04-09T11:00:56.185Z,28.04
2024-04-09T11:03:25.323Z,27.97
2024-04-09T11:05:54.335Z,28.00
2024-04-09T11:08:31.107Z,27.98
2024-04-09T11:11:02.465Z,27.48
2024-04-09T11:13:32.643Z,27.29
2024-04-09T11:16:03.065Z,27.59
2024-04-09T11:18:32.107Z,27.92
2024-04-09T11:21:02.604Z,28.04
2024-04-09T11:23:35.353Z,28.05
2024-04-09T11:26:06.553Z,28.27
2024-04-09T11:28:34.667Z,28.42
2024-04-09T11:31:05.340Z,28.41
2024-04-09T11:33:33.565Z,28.33
2024-04-09T11:36:07.956Z,28.33
2024-04-09T11:38:42.545Z,28.40
2024-04-09T11:41:10.539Z,28.16
2024-04-09T11:43:38.600Z,28.10
2024-04-09T11:46:06.615Z,28.30
2024-04-09T11:48:34.971Z,28.37
2024-04-09T11:51:03.338Z,28.68
2024-04-09T11:53:31.442Z,28.81
2024-04-09T11:56:00.514Z,28.93
2024-04-09T11:58:28.632Z,29.00
2024-04-09T12:00:57.532Z,28.95
2024-04-09T12:03:25.972Z,28.86
2024-04-09T12:05:54.137Z,28.60
2024-04-09T12:08:23.142Z,28.99
2024-04-09T12:10:51.189Z,29.09
2024-04-09T12:13:19.248Z,29.07
2024-04-09T12:15:47.317Z,29.14
2024-04-09T12:18:15.465Z,29.18
2024-04-09T12:20:43.693Z,28.95
2024-04-09T12:23:12.090Z,29.10
2024-04-09T12:25:42.375Z,29.10
2024-04-09T12:28:10.356Z,29.08
2024-04-09T12:30:38.618Z,28.92
2024-04-09T12:33:07.311Z,29.00
2024-04-09T12:35:35.401Z,29.30
2024-04-09T12:38:03.559Z,29.39
2024-04-09T12:40:31.509Z,29.06
2024-04-09T12:42:59.483Z,28.96
2024-04-09T12:45:27.471Z,28.89
2024-04-09T12:47:55.724Z,28.73
2024-04-09T12:50:24.042Z,28.90
2024-04-09T12:52:52.290Z,29.18
2024-04-09T12:55:20.453Z,28.96
2024-04-09T12:57:48.560Z,28.74
2024-04-09T13:00:39.381Z,28.70
2024-04-09T13:03:06.094Z,28.78
2024-04-09T13:05:35.042Z,28.89
2024-04-09T13:08:04.581Z,29.22
2024-04-09T13:10:34.323Z,29.41
2024-04-09T13:13:02.464Z,29.22
2024-04-09T13:18:01.880Z,28.88
2024-04-09T13:20:30.374Z,28.83
2024-04-09T13:22:58.518Z,28.22
2024-04-09T13:25:26.522Z,27.84
2024-04-09T13:27:54.525Z,27.98
2024-04-09T13:30:22.629Z,28.08
2024-04-09T13:32:50.858Z,27.92
2024-04-09T13:35:19.129Z,27.63
2024-04-09T13:37:47.235Z,27.84
2024-04-09T13:40:15.263Z,27.85
2024-04-09T13:42:45.206Z,27.87
2024-04-09T13:45:14.313Z,27.73
2024-04-09T13:47:42.942Z,27.76
2024-04-09T13:50:12.386Z,27.88
2024-04-09T13:52:40.713Z,27.94
2024-04-09T13:55:09.760Z,27.84
2024-04-09T13:57:37.839Z,27.85
2024-04-09T14:00:09.845Z,27.87
2024-04-09T14:02:42.724Z,27.90
2024-04-09T14:05:11.980Z,27.74
2024-04-09T14:07:40.391Z,27.61
2024-04-09T14:10:08.537Z,27.54
2024-04-09T14:12:36.627Z,27.61
2024-04-09T14:15:08.404Z,27.52
2024-04-09T14:17:37.294Z,27.44
2024-04-09T14:20:15.989Z,27.46
2024-04-09T14:22:44.093Z,27.31
2024-04-09T14:25:12.795Z,26.95
2024-04-09T14:27:40.836Z,26.85
2024-04-09T14:30:09.130Z,26.74
2024-04-09T14:32:37.740Z,26.62
2024-04-09T14:35:10.784Z,26.56
2024-04-09T14:37:40.479Z,26.41
2024-04-09T14:40:08.876Z,26.34
2024-04-09T14:42:37.427Z,26.42
2024-04-09T14:45:05.951Z,26.46
2024-04-09T14:47:34.187Z,26.52
2024-04-09T14:50:03.365Z,26.50
2024-04-09T14:52:31.363Z,26.41
2024-04-09T14:54:59.350Z,26.25
2024-04-09T14:57:27.454Z,26.03
2024-04-09T14:59:55.439Z,25.92
2024-04-09T15:02:27.370Z,25.88
2024-04-09T15:04:58.660Z,25.79
2024-04-09T15:07:27.144Z,25.74
2024-04-09T15:09:55.334Z,25.41
2024-04-09T15:12:23.581Z,25.42
2024-04-09T15:14:51.752Z,25.41
2024-04-09T15:17:20.087Z,25.36
2024-04-09T15:19:48.314Z,24.78
2024-04-09T15:22:16.327Z,24.56
2024-04-09T15:24:44.310Z,24.69
2024-04-09T15:27:12.328Z,24.63
2024-04-09T15:29:41.756Z,24.50
2024-04-09T15:32:11.347Z,24.23
2024-04-09T15:34:39.901Z,24.02
2024-04-09T15:37:08.174Z,23.79
2024-04-09T15:40:01.817Z,23.35
2024-04-09T15:42:30.030Z,23.09
2024-04-09T15:44:58.037Z,22.95
2024-04-09T15:47:27.070Z,22.95
2024-04-09T15:49:55.303Z,22.84
2024-04-09T15:52:24.210Z,22.71
2024-04-09T15:54:52.308Z,22.63
2024-04-09T15:57:21.133Z,22.46
2024-04-09T15:59:52.479Z,22.40
2024-04-09T16:02:22.173Z,22.30
2024-04-09T16:04:51.111Z,22.26
2024-04-09T16:07:19.262Z,22.09
2024-04-09T16:09:47.608Z,21.96
2024-04-09T16:12:16.056Z,21.83
2024-04-09T16:14:48.992Z,21.71
2024-04-09T16:17:17.222Z,21.60
2024-04-09T16:19:47.156Z,21.47
2024-04-09T16:22:15.963Z,21.26
2024-04-09T16:24:44.048Z,21.08
2024-04-09T16:27:13.053Z,20.97
2024-04-09T16:29:41.204Z,20.80
2024-04-09T16:32:09.877Z,20.67
2024-04-09T16:34:38.165Z,20.58
2024-04-09T16:37:06.909Z,20.44
2024-04-09T16:39:35.372Z,20.35
2024-04-09T16:42:04.292Z,20.26
2024-04-09T16:44:33.860Z,20.17
2024-04-09T16:47:02.124Z,20.07
2024-04-09T16:49:31.011Z,19.91
2024-04-09T16:51:59.110Z,19.75
2024-04-09T16:54:27.318Z,19.73
2024-04-09T16:56:55.978Z,19.72
2024-04-09T16:59:24.566Z,19.71
2024-04-09T17:01:52.848Z,19.66
2024-04-09T17:04:22.261Z,19.60
2024-04-09T17:06:50.292Z,19.57
2024-04-09T17:09:18.550Z,19.56
2024-04-09T17:11:47.273Z,19.45
2024-04-09T17:14:15.928Z,19.36
2024-04-09T17:16:44.521Z,19.28
2024-04-09T17:19:12.825Z,19.21
2024-04-09T17:21:40.841Z,19.17
2024-04-09T17:24:10.459Z,19.12
2024-04-09T17:26:38.481Z,19.07
2024-04-09T17:29:06.943Z,19.01
2024-04-09T17:31:34.962Z,18.96
2024-04-09T17:34:03.588Z,18.91
2024-04-09T17:36:31.816Z,18.85
2024-04-09T17:38:59.932Z,18.81
2024-04-09T17:41:28.499Z,18.79
2024-04-09T17:43:57.265Z,18.77
2024-04-09T17:46:25.300Z,18.74
2024-04-09T17:48:55.695Z,18.72
2024-04-09T17:51:25.571Z,18.68
2024-04-09T17:53:53.716Z,18.66
2024-04-09T17:56:22.098Z,18.63
2024-04-09T17:58:50.193Z,18.61
2024-04-09T18:01:22.734Z,18.57
2024-04-09T18:03:55.871Z,18.51
2024-04-09T18:06:26.476Z,18.42
2024-04-09T18:08:55.227Z,18.34
2024-04-09T18:11:23.351Z,18.29
2024-04-09T18:13:51.507Z,18.28
2024-04-09T18:16:19.874Z,18.29
2024-04-09T18:18:47.933Z,18.24
2024-04-09T18:21:16.169Z,18.22
2024-04-09T18:23:48.605Z,18.27
2024-04-09T18:26:21.041Z,18.33
2024-04-09T18:28:49.862Z,18.31
2024-04-09T18:31:18.800Z,18.26
2024-04-09T18:33:47.402Z,18.15
2024-04-09T18:36:16.061Z,18.04
2024-04-09T18:38:47.480Z,18.09
2024-04-09T18:41:16.188Z,18.08
2024-04-09T18:43:44.712Z,18.01
2024-04-09T18:46:13.094Z,17.98
2024-04-09T18:48:42.263Z,17.93
2024-04-09T18:51:14.967Z,17.85
2024-04-09T18:53:43.065Z,17.86
2024-04-09T18:56:11.320Z,17.79
2024-04-09T18:58:39.439Z,17.70
2024-04-09T19:01:08.499Z,17.62
2024-04-09T19:03:36.892Z,17.48
2024-04-09T19:06:05.122Z,17.37
2024-04-09T19:08:33.507Z,17.36
2024-04-09T19:11:08.004Z,17.31
2024-04-09T19:13:40.608Z,17.29
2024-04-09T19:16:09.589Z,17.22
2024-04-09T19:18:37.838Z,17.21
2024-04-09T19:21:08.111Z,17.17
2024-04-09T19:23:36.277Z,17.08
2024-04-09T19:26:07.616Z,16.99
2024-04-09T19:28:36.067Z,16.89
2024-04-09T19:31:04.372Z,16.82
2024-04-09T19:33:33.240Z,16.77
2024-04-09T19:36:02.531Z,16.69
2024-04-09T19:38:30.864Z,16.65
2024-04-09T19:40:59.123Z,16.60
2024-04-09T19:43:37.591Z,16.59
2024-04-09T19:46:10.835Z,16.60
2024-04-09T19:48:39.360Z,16.62
2024-04-09T19:51:07.709Z,16.63
2024-04-09T19:53:46.632Z,16.61
2024-04-09T19:56:22.316Z,16.58
2024-04-09T19:58:50.667Z,16.58
2024-04-09T20:01:20.442Z,16.61
2024-04-09T20:03:48.973Z,16.62
2024-04-09T20:06:17.324Z,16.65
2024-04-09T20:08:45.749Z,16.72
2024-04-09T20:11:14.131Z,16.74
2024-04-09T20:13:43.475Z,16.76
2024-04-09T20:16:12.328Z,16.78
2024-04-09T20:18:40.767Z,16.77
2024-04-09T20:21:08.970Z,16.78
2024-04-09T20:23:37.367Z,16.79
2024-04-09T20:26:05.415Z,16.79
2024-04-09T20:28:33.438Z,16.80
2024-04-09T20:31:10.190Z,16.79
2024-04-09T20:33:39.044Z,16.78
2024-04-09T20:36:07.707Z,16.75
2024-04-09T20:38:35.897Z,16.76
2024-04-09T20:41:04.895Z,16.77
2024-04-09T20:43:32.970Z,16.64
2024-04-09T20:46:01.701Z,16.44
2024-04-09T20:48:30.107Z,16.20
2024-04-09T20:50:58.380Z,16.05
2024-04-09T20:53:27.199Z,15.97
2024-04-09T20:56:06.067Z,15.88
2024-04-09T20:58:34.963Z,15.86
2024-04-09T21:01:04.853Z,15.81
2024-04-09T21:03:33.498Z,15.71
2024-04-09T21:06:03.677Z,15.67
2024-04-09T21:08:31.771Z,15.72
2024-04-09T21:10:59.918Z,15.81
2024-04-09T21:13:28.258Z,15.74
2024-04-09T21:15:56.504Z,15.63
2024-04-09T21:18:27.383Z,15.54
2024-04-09T21:20:55.624Z,15.45
2024-04-09T21:23:23.876Z,15.33
2024-04-09T21:25:52.197Z,15.30
2024-04-09T21:28:20.187Z,15.26
2024-04-09T21:30:48.984Z,15.17
2024-04-09T21:33:17.218Z,15.10
2024-04-09T21:35:45.370Z,15.08
2024-04-09T21:38:13.637Z,15.08
2024-04-09T21:40:42.409Z,15.07
2024-04-09T21:43:10.798Z,15.02
2024-04-09T21:45:39.269Z,14.88
2024-04-09T21:48:07.996Z,14.74
2024-04-09T21:50:36.407Z,14.65
2024-04-09T21:53:04.640Z,14.49
2024-04-09T21:55:32.597Z,14.35
2024-04-09T21:58:00.561Z,14.20
2024-04-09T22:00:35.174Z,14.05
2024-04-09T22:03:03.478Z,13.91
2024-04-09T22:05:31.647Z,13.79
2024-04-09T22:07:59.800Z,13.68
2024-04-09T22:10:29.202Z,13.57
2024-04-09T22:13:00.963Z,13.46
2024-04-09T22:15:29.110Z,13.36
2024-04-09T22:17:57.167Z,13.26
2024-04-09T22:20:26.014Z,13.16
2024-04-09T22:22:54.290Z,13.09
2024-04-09T22:25:22.354Z,13.10
2024-04-09T22:27:50.366Z,13.03
2024-04-09T22:30:18.306Z,12.95
2024-04-09T22:32:54.063Z,12.86
2024-04-09T22:35:22.736Z,12.77
2024-04-09T22:37:56.460Z,12.73
2024-04-09T22:40:24.680Z,12.85
2024-04-09T22:42:52.625Z,13.14
2024-04-09T22:45:20.640Z,13.32
2024-04-09T22:47:48.967Z,13.54
2024-04-09T22:50:17.300Z,13.74
2024-04-09T22:52:45.876Z,13.95
2024-04-09T22:55:13.895Z,14.16
2024-04-09T22:57:41.961Z,14.29
2024-04-09T23:00:10.618Z,14.30
2024-04-09T23:02:39.989Z,14.21
2024-04-09T23:05:11.344Z,14.07
2024-04-09T23:07:39.443Z,13.98
2024-04-09T23:10:07.710Z,13.88
2024-04-09T23:12:36.781Z,13.82
2024-04-09T23:15:05.162Z,13.80
2024-04-09T23:17:33.380Z,13.81
2024-04-09T23:20:01.618Z,13.82
2024-04-09T23:22:30.856Z,13.81
2024-04-09T23:24:59.073Z,13.77
2024-04-09T23:27:27.138Z,13.62
2024-04-09T23:29:55.407Z,13.42
2024-04-09T23:32:23.582Z,13.28
2024-04-09T23:34:52.257Z,13.12
2024-04-09T23:37:20.345Z,12.96
2024-04-09T23:39:48.885Z,12.82
2024-04-09T23:42:16.852Z,12.68
2024-04-09T23:44:45.693Z,12.56
2024-04-09T23:47:13.742Z,12.46
2024-04-09T23:49:42.354Z,12.38
2024-04-09T23:52:10.351Z,12.28
2024-04-09T23:54:38.299Z,12.17
2024-04-09T23:57:06.254Z,12.09
2024-04-09T23:59:34.389Z,11.98
